createdAt,value
2024-01-31T00:01:19.869Z,7.12
2024-01-31T00:03:31.034Z,6.97
2024-01-31T00:05:39.267Z,6.99
2024-01-31T00:07:47.630Z,7.13
2024-01-31T00:09:56.019Z,7.27
2024-01-31T00:12:04.197Z,7.13
2024-01-31T00:14:14.760Z,7.23
2024-01-31T00:16:22.986Z,7.28
2024-01-31T00:18:34.245Z,7.31
2024-01-31T00:20:42.566Z,7.22
2024-01-31T00:22:50.912Z,6.96
2024-01-31T00:24:59.288Z,6.96
2024-01-31T00:27:08.256Z,6.94
2024-01-31T00:29:16.169Z,7.04
2024-01-31T00:31:24.654Z,6.93
2024-01-31T00:33:35.758Z,6.78
2024-01-31T00:35:49.306Z,7.01
2024-01-31T00:37:57.873Z,6.82
2024-01-31T00:40:07.262Z,6.63
2024-01-31T00:42:15.929Z,6.57
2024-01-31T00:44:24.091Z,6.67
2024-01-31T00:46:32.601Z,6.68
2024-01-31T00:48:44.543Z,6.69
2024-01-31T00:50:52.823Z,6.76
2024-01-31T00:53:00.911Z,6.85
2024-01-31T00:55:09.650Z,6.85
2024-01-31T00:57:17.912Z,6.83
2024-01-31T00:59:26.388Z,6.85
2024-01-31T01:01:35.061Z,6.74
2024-01-31T01:03:45.845Z,6.76
2024-01-31T01:05:54.226Z,6.70
2024-01-31T01:08:04.195Z,6.61
2024-01-31T01:10:13.282Z,6.45
2024-01-31T01:12:21.348Z,6.35
2024-01-31T01:14:29.465Z,6.40
2024-01-31T01:16:37.904Z,6.50
2024-01-31T01:18:48.927Z,6.46
2024-01-31T01:20:57.249Z,6.60
2024-01-31T01:23:05.571Z,6.81
2024-01-31T01:25:11.176Z,6.83
2024-01-31T01:27:19.491Z,6.59
2024-01-31T01:29:27.873Z,6.50
2024-01-31T01:31:36.175Z,6.51
2024-01-31T01:33:44.790Z,6.79
2024-01-31T01:35:55.625Z,6.78
2024-01-31T01:38:03.727Z,6.59
2024-01-31T01:40:13.286Z,6.74
2024-01-31T01:42:22.094Z,6.89
2024-01-31T01:44:32.642Z,6.65
2024-01-31T01:46:41.067Z,6.50
2024-01-31T01:48:50.377Z,6.36
2024-01-31T01:51:01.192Z,6.30
2024-01-31T01:53:09.836Z,6.31
2024-01-31T01:55:18.273Z,6.35
2024-01-31T01:57:26.944Z,6.31
2024-01-31T01:59:35.183Z,6.53
2024-01-31T02:01:45.592Z,6.74
2024-01-31T02:04:01.465Z,6.65
2024-01-31T02:06:12.819Z,6.73
2024-01-31T02:08:21.304Z,6.97
2024-01-31T02:10:29.512Z,6.90
2024-01-31T02:12:38.089Z,6.61
2024-01-31T02:14:44.090Z,6.48
2024-01-31T02:16:52.751Z,6.56
2024-01-31T02:19:01.222Z,6.61
2024-01-31T02:21:12.568Z,6.54
2024-01-31T02:23:24.486Z,6.45
2024-01-31T02:25:33.154Z,6.27
2024-01-31T02:27:42.661Z,6.15
2024-01-31T02:29:50.876Z,6.09
2024-01-31T02:31:56.247Z,6.06
2024-01-31T02:34:04.465Z,5.98
2024-01-31T02:36:10.132Z,6.02
2024-01-31T02:38:18.314Z,5.98
2024-01-31T02:40:30.192Z,5.99
2024-01-31T02:42:38.172Z,5.91
2024-01-31T02:44:47.123Z,6.19
2024-01-31T02:46:55.164Z,6.25
2024-01-31T02:49:04.163Z,6.12
2024-01-31T02:51:12.903Z,6.06
2024-01-31T02:53:21.073Z,6.21
2024-01-31T02:55:32.216Z,6.22
2024-01-31T02:57:41.228Z,6.18
2024-01-31T02:59:50.058Z,6.23
2024-01-31T03:01:58.761Z,6.07
2024-01-31T03:04:07.193Z,6.09
2024-01-31T03:06:15.976Z,5.99
2024-01-31T03:08:24.123Z,5.91
2024-01-31T03:10:34.850Z,6.15
2024-01-31T03:12:40.688Z,6.21
2024-01-31T03:14:49.043Z,6.03
2024-01-31T03:16:57.713Z,5.87
2024-01-31T03:19:05.967Z,5.74
2024-01-31T03:21:11.487Z,5.73
2024-01-31T03:23:20.105Z,5.72
2024-01-31T03:25:25.816Z,5.72
2024-01-31T03:27:36.796Z,5.70
2024-01-31T03:29:42.567Z,5.67
2024-01-31T03:31:51.045Z,5.58
2024-01-31T03:34:00.183Z,5.60
2024-01-31T03:36:13.321Z,5.68
2024-01-31T03:38:21.627Z,5.66
2024-01-31T03:40:30.161Z,5.53
2024-01-31T03:42:41.560Z,5.50
2024-01-31T03:44:49.786Z,5.52
2024-01-31T03:46:58.256Z,5.57
2024-01-31T03:49:06.829Z,5.50
2024-01-31T03:51:22.783Z,5.54
2024-01-31T03:53:31.557Z,5.49
2024-01-31T03:55:40.616Z,5.49
2024-01-31T03:57:51.727Z,5.61
2024-01-31T03:59:57.308Z,5.69
2024-01-31T04:02:05.540Z,5.63
2024-01-31T04:04:13.970Z,5.52
2024-01-31T04:06:22.634Z,5.52
2024-01-31T04:08:31.050Z,5.48
2024-01-31T04:10:39.549Z,5.50
2024-01-31T04:12:49.325Z,5.68
2024-01-31T04:15:00.353Z,5.70
2024-01-31T04:17:08.769Z,5.69
2024-01-31T04:19:17.305Z,5.62
2024-01-31T04:21:26.401Z,5.66
2024-01-31T04:23:34.579Z,5.70
2024-01-31T04:25:43.180Z,5.81
2024-01-31T04:27:52.255Z,5.76
2024-01-31T04:30:03.357Z,5.87
2024-01-31T04:32:12.106Z,5.91
2024-01-31T04:34:20.496Z,5.86
2024-01-31T04:36:28.840Z,5.89
2024-01-31T04:38:37.502Z,5.98
2024-01-31T04:40:46.082Z,6.10
2024-01-31T04:42:54.863Z,6.18
2024-01-31T04:45:06.717Z,6.41
2024-01-31T04:47:15.155Z,6.29
2024-01-31T04:49:20.758Z,6.26
2024-01-31T04:51:29.553Z,6.17
2024-01-31T04:53:38.247Z,6.23
2024-01-31T04:55:49.803Z,6.43
2024-01-31T04:57:58.170Z,6.35
2024-01-31T05:00:11.478Z,6.61
2024-01-31T05:02:17.285Z,6.52
2024-01-31T05:04:27.153Z,6.55
2024-01-31T05:06:35.727Z,6.41
2024-01-31T05:08:44.238Z,6.51
2024-01-31T05:10:52.819Z,6.51
2024-01-31T05:13:01.390Z,6.52
2024-01-31T05:15:13.726Z,6.56
2024-01-31T05:17:21.883Z,6.52
2024-01-31T05:19:32.621Z,6.39
2024-01-31T05:21:40.851Z,6.43
2024-01-31T05:23:49.256Z,6.57
2024-01-31T05:25:57.627Z,6.57
2024-01-31T05:28:06.177Z,6.51
2024-01-31T05:30:18.296Z,6.40
2024-01-31T05:32:26.490Z,6.54
2024-01-31T05:34:35.051Z,6.60
2024-01-31T05:36:40.964Z,6.42
2024-01-31T05:38:49.306Z,6.47
2024-01-31T05:40:57.816Z,6.44
2024-01-31T05:43:06.620Z,6.40
2024-01-31T05:45:15.131Z,6.44
2024-01-31T05:47:23.501Z,6.62
2024-01-31T05:49:29.195Z,6.54
2024-01-31T05:51:37.668Z,6.72
2024-01-31T05:53:45.984Z,6.67
2024-01-31T05:55:54.486Z,6.78
2024-01-31T05:58:04.507Z,6.59
2024-01-31T06:00:18.511Z,6.67
2024-01-31T06:02:26.814Z,6.59
2024-01-31T06:04:35.292Z,6.48
2024-01-31T06:06:44.222Z,6.53
2024-01-31T06:08:49.917Z,6.53
2024-01-31T06:11:04.635Z,6.53
2024-01-31T06:13:13.574Z,6.44
2024-01-31T06:15:25.765Z,6.57
2024-01-31T06:17:34.074Z,6.75
2024-01-31T06:19:44.064Z,6.53
2024-01-31T06:21:52.389Z,6.39
2024-01-31T06:24:00.844Z,6.39
2024-01-31T06:28:40.193Z,6.34
2024-01-31T06:31:00.752Z,6.31
2024-01-31T06:33:09.953Z,6.30
2024-01-31T06:35:18.824Z,6.27
2024-01-31T06:37:27.200Z,6.18
2024-01-31T06:39:37.905Z,6.12
2024-01-31T06:41:47.103Z,6.08
2024-01-31T06:43:55.673Z,6.11
2024-01-31T06:46:06.855Z,6.06
2024-01-31T06:48:15.552Z,5.96
2024-01-31T06:50:25.092Z,5.91
2024-01-31T06:52:33.542Z,6.00
2024-01-31T06:54:41.977Z,6.01
2024-01-31T06:56:50.512Z,6.08
2024-01-31T06:58:59.782Z,6.09
2024-01-31T07:01:11.255Z,6.04
2024-01-31T07:03:19.660Z,6.07
2024-01-31T07:05:25.627Z,6.16
2024-01-31T07:07:34.129Z,6.11
2024-01-31T07:09:45.161Z,6.20
2024-01-31T07:11:53.573Z,6.23
2024-01-31T07:14:01.901Z,6.19
2024-01-31T07:16:14.338Z,6.10
2024-01-31T07:18:22.990Z,6.13
2024-01-31T07:20:31.823Z,6.24
2024-01-31T07:22:40.393Z,6.42
2024-01-31T07:24:48.988Z,6.37
2024-01-31T07:26:57.372Z,6.36
2024-01-31T07:29:09.635Z,6.40
2024-01-31T07:31:20.813Z,6.61
2024-01-31T07:33:29.345Z,6.63
2024-01-31T07:35:37.782Z,6.30
2024-01-31T07:37:43.424Z,6.33
2024-01-31T07:39:51.817Z,6.46
2024-01-31T07:42:01.403Z,6.40
2024-01-31T07:44:09.543Z,6.30
2024-01-31T07:46:22.946Z,6.24
2024-01-31T07:48:31.370Z,6.18
2024-01-31T07:50:39.990Z,6.33
2024-01-31T07:52:48.296Z,6.39
2024-01-31T07:54:56.744Z,6.22
2024-01-31T07:57:05.398Z,6.38
2024-01-31T07:59:13.898Z,6.36
2024-01-31T08:01:25.242Z,6.10
2024-01-31T08:03:36.532Z,6.13
2024-01-31T08:05:45.085Z,6.07
2024-01-31T08:07:53.384Z,5.82
2024-01-31T08:09:59.175Z,5.81
2024-01-31T08:12:08.272Z,5.88
2024-01-31T08:14:16.844Z,6.00
2024-01-31T08:16:28.087Z,6.18
2024-01-31T08:18:36.508Z,6.40
2024-01-31T08:20:44.979Z,6.54
2024-01-31T08:22:53.306Z,6.52
2024-01-31T08:25:01.896Z,6.37
2024-01-31T08:27:07.641Z,6.34
2024-01-31T08:29:23.204Z,6.43
2024-01-31T08:31:38.448Z,6.65
2024-01-31T08:33:48.958Z,6.52
2024-01-31T08:35:54.763Z,6.42
2024-01-31T08:38:04.199Z,6.39
2024-01-31T08:40:15.468Z,6.18
2024-01-31T08:42:30.325Z,6.19
2024-01-31T08:44:38.986Z,6.27
2024-01-31T08:47:03.276Z,6.34
2024-01-31T08:49:19.112Z,6.25
2024-01-31T08:51:24.869Z,6.28
2024-01-31T08:53:33.600Z,6.34
2024-01-31T08:55:39.402Z,6.41
2024-01-31T08:57:47.929Z,6.64
2024-01-31T08:59:56.921Z,7.00
2024-01-31T09:02:09.359Z,7.08
2024-01-31T09:04:15.213Z,7.11
2024-01-31T09:06:23.638Z,7.22
2024-01-31T09:08:30.052Z,7.29
2024-01-31T09:10:59.666Z,7.32
2024-01-31T09:13:08.376Z,7.52
2024-01-31T09:15:18.673Z,7.49
2024-01-31T09:17:29.808Z,7.76
2024-01-31T09:19:38.121Z,7.76
2024-01-31T09:21:46.198Z,7.76
2024-01-31T09:23:55.137Z,7.82
2024-01-31T09:26:04.567Z,7.77
2024-01-31T09:28:12.732Z,7.53
2024-01-31T09:30:20.952Z,7.55
2024-01-31T09:32:31.902Z,7.90
2024-01-31T09:34:40.458Z,7.87
2024-01-31T09:36:49.738Z,7.79
2024-01-31T09:38:59.139Z,7.72
2024-01-31T09:41:07.869Z,7.75
2024-01-31T09:43:19.669Z,7.95
2024-01-31T09:45:30.856Z,8.14
2024-01-31T09:47:43.805Z,7.99
2024-01-31T09:49:54.173Z,8.13
2024-01-31T09:52:03.643Z,8.21
2024-01-31T09:54:13.288Z,8.69
2024-01-31T09:56:22.136Z,8.93
2024-01-31T09:58:30.284Z,8.82
2024-01-31T10:00:38.819Z,8.41
2024-01-31T10:02:52.287Z,8.13
2024-01-31T10:05:03.351Z,8.24
2024-01-31T10:07:11.608Z,8.35
2024-01-31T10:09:19.835Z,8.60
2024-01-31T10:11:30.395Z,8.68
2024-01-31T10:13:40.743Z,8.66
2024-01-31T10:15:48.997Z,9.02
2024-01-31T10:18:01.150Z,9.00
2024-01-31T10:20:13.130Z,9.09
2024-01-31T10:22:22.081Z,9.21
2024-01-31T10:24:30.639Z,9.14
2024-01-31T10:26:39.685Z,9.19
2024-01-31T10:28:51.188Z,9.48
2024-01-31T10:31:02.314Z,9.61
2024-01-31T10:33:17.308Z,9.73
2024-01-31T10:35:44.552Z,9.83
2024-01-31T10:37:58.035Z,9.96
2024-01-31T10:40:11.392Z,10.14
2024-01-31T10:42:23.146Z,10.16
2024-01-31T10:44:31.962Z,9.92
2024-01-31T10:46:49.363Z,9.96
2024-01-31T10:49:00.544Z,9.87
2024-01-31T10:51:13.881Z,10.03
2024-01-31T10:53:26.859Z,10.14
2024-01-31T10:55:37.132Z,10.37
2024-01-31T10:57:46.108Z,10.45
2024-01-31T10:59:54.556Z,10.50
2024-01-31T11:02:03.113Z,10.34
2024-01-31T11:04:17.804Z,10.32
2024-01-31T11:06:28.088Z,10.31
2024-01-31T11:08:39.422Z,10.41
2024-01-31T11:10:47.708Z,10.56
2024-01-31T11:13:04.232Z,10.66
2024-01-31T11:15:13.638Z,10.57
2024-01-31T11:17:28.548Z,10.03
2024-01-31T11:19:41.448Z,9.93
2024-01-31T11:21:49.636Z,9.76
2024-01-31T11:23:55.326Z,9.64
2024-01-31T11:26:05.466Z,9.55
2024-01-31T11:28:15.270Z,9.46
2024-01-31T11:30:24.429Z,9.10
2024-01-31T11:32:34.486Z,9.16
2024-01-31T11:34:46.546Z,9.79
2024-01-31T11:36:54.752Z,10.09
2024-01-31T11:39:03.039Z,9.84
2024-01-31T11:41:11.348Z,9.26
2024-01-31T11:43:20.230Z,9.04
2024-01-31T11:45:29.251Z,9.24
2024-01-31T11:47:38.425Z,9.36
2024-01-31T11:49:49.585Z,9.29
2024-01-31T11:51:57.637Z,9.75
2024-01-31T11:54:07.054Z,9.71
2024-01-31T11:56:17.769Z,9.65
2024-01-31T11:58:27.287Z,9.43
2024-01-31T12:00:36.241Z,9.67
2024-01-31T12:02:45.429Z,9.89
2024-01-31T12:05:01.858Z,9.72
2024-01-31T12:07:11.106Z,9.54
2024-01-31T12:09:20.368Z,9.63
2024-01-31T12:11:30.086Z,9.63
2024-01-31T12:13:38.317Z,9.63
2024-01-31T12:15:47.921Z,9.79
2024-01-31T12:17:56.888Z,9.33
2024-01-31T12:20:13.727Z,9.52
2024-01-31T12:22:22.411Z,9.69
2024-01-31T12:24:32.288Z,9.70
2024-01-31T12:26:41.517Z,10.29
2024-01-31T12:28:55.287Z,10.78
2024-01-31T12:31:03.465Z,10.69
2024-01-31T12:33:11.783Z,10.76
2024-01-31T12:35:24.305Z,11.03
2024-01-31T12:37:33.406Z,10.57
2024-01-31T12:39:41.710Z,10.28
2024-01-31T12:41:51.492Z,10.82
2024-01-31T12:44:00.088Z,11.28
2024-01-31T12:46:08.777Z,11.43
2024-01-31T12:48:17.525Z,11.52
2024-01-31T12:50:28.347Z,11.56
2024-01-31T12:52:38.359Z,11.55
2024-01-31T12:54:46.417Z,11.12
2024-01-31T12:56:54.534Z,11.25
2024-01-31T12:59:02.738Z,11.46
2024-01-31T13:01:11.195Z,11.37
2024-01-31T13:03:16.806Z,11.48
2024-01-31T13:05:29.680Z,11.59
2024-01-31T13:07:38.511Z,11.65
2024-01-31T13:09:46.737Z,11.79
2024-01-31T13:11:54.837Z,11.81
2024-01-31T13:14:00.520Z,11.88
2024-01-31T13:16:09.664Z,11.94
2024-01-31T13:18:18.094Z,11.70
2024-01-31T13:20:28.983Z,11.63
2024-01-31T13:22:38.066Z,11.56
2024-01-31T13:24:48.443Z,11.67
2024-01-31T13:26:57.465Z,11.56
2024-01-31T13:29:05.611Z,11.62
2024-01-31T13:31:14.822Z,11.68
2024-01-31T13:33:23.029Z,11.87
2024-01-31T13:35:33.714Z,11.67
2024-01-31T13:37:42.177Z,11.62
2024-01-31T13:39:52.139Z,11.46
2024-01-31T13:42:03.677Z,11.56
2024-01-31T13:44:12.115Z,11.49
2024-01-31T13:46:21.484Z,11.60
2024-01-31T13:48:32.677Z,11.59
2024-01-31T13:50:47.150Z,11.33
2024-01-31T13:52:59.399Z,10.66
2024-01-31T13:55:16.499Z,10.54
2024-01-31T13:57:29.904Z,10.32
2024-01-31T13:59:40.752Z,10.13
2024-01-31T14:01:50.469Z,10.11
2024-01-31T14:03:59.262Z,10.22
2024-01-31T14:06:12.240Z,10.20
2024-01-31T14:08:20.370Z,10.09
2024-01-31T14:10:28.539Z,9.81
2024-01-31T14:12:38.126Z,9.70
2024-01-31T14:14:46.418Z,9.61
2024-01-31T14:16:57.551Z,9.63
2024-01-31T14:19:07.306Z,9.67
2024-01-31T14:21:20.619Z,9.52
2024-01-31T14:25:40.288Z,9.64
2024-01-31T14:27:54.028Z,9.55
2024-01-31T14:30:05.022Z,9.71
2024-01-31T14:32:14.246Z,9.62
2024-01-31T14:34:25.070Z,9.62
2024-01-31T14:36:35.712Z,9.59
2024-01-31T14:38:43.981Z,9.66
2024-01-31T14:40:49.502Z,9.93
2024-01-31T14:42:57.909Z,10.08
2024-01-31T14:45:06.016Z,10.11
2024-01-31T14:47:16.778Z,10.04
2024-01-31T14:49:28.137Z,9.94
2024-01-31T14:51:38.844Z,9.98
2024-01-31T14:53:48.125Z,10.01
2024-01-31T14:56:00.933Z,9.82
2024-01-31T14:58:09.065Z,9.74
2024-01-31T15:00:20.036Z,9.85
2024-01-31T15:02:28.480Z,9.75
2024-01-31T15:04:38.736Z,9.63
2024-01-31T15:06:52.523Z,9.64
2024-01-31T15:09:01.246Z,9.56
2024-01-31T15:11:15.634Z,9.48
2024-01-31T15:13:24.352Z,9.37
2024-01-31T15:15:32.736Z,9.30
2024-01-31T15:17:41.370Z,9.27
2024-01-31T15:19:51.793Z,9.48
2024-01-31T15:22:02.693Z,9.38
2024-01-31T15:24:13.402Z,9.37
2024-01-31T15:26:21.649Z,9.35
2024-01-31T15:28:29.794Z,9.37
2024-01-31T15:30:38.320Z,9.18
2024-01-31T15:32:47.161Z,9.00
2024-01-31T15:34:57.295Z,8.84
2024-01-31T15:37:08.121Z,8.71
2024-01-31T15:39:16.466Z,8.61
2024-01-31T15:41:25.109Z,8.48
2024-01-31T15:43:30.690Z,8.20
2024-01-31T15:45:38.978Z,8.03
2024-01-31T15:47:47.664Z,7.85
2024-01-31T15:49:56.257Z,7.81
2024-01-31T15:52:04.629Z,7.74
2024-01-31T15:54:17.061Z,7.72
2024-01-31T15:56:25.771Z,7.80
2024-01-31T15:58:36.152Z,7.84
2024-01-31T16:00:44.470Z,7.79
2024-01-31T16:02:53.297Z,7.78
2024-01-31T16:05:01.692Z,7.70
2024-01-31T16:07:10.284Z,7.62
2024-01-31T16:09:21.702Z,7.54
2024-01-31T16:11:30.203Z,7.45
2024-01-31T16:13:38.996Z,7.33
2024-01-31T16:15:50.797Z,7.26
2024-01-31T16:17:59.378Z,7.12
2024-01-31T16:20:10.904Z,6.99
2024-01-31T16:22:20.564Z,6.87
2024-01-31T16:24:31.704Z,6.76
2024-01-31T16:26:42.818Z,6.76
2024-01-31T16:28:51.294Z,6.71
2024-01-31T16:30:58.386Z,7.05
2024-01-31T16:33:07.046Z,7.17
2024-01-31T16:35:15.951Z,7.13
2024-01-31T16:37:24.306Z,7.01
2024-01-31T16:39:35.377Z,6.96
2024-01-31T16:41:41.444Z,6.89
2024-01-31T16:43:49.948Z,6.83
2024-01-31T16:45:58.233Z,6.82
2024-01-31T16:48:09.476Z,6.82
2024-01-31T16:50:18.192Z,6.83
2024-01-31T16:52:26.562Z,6.83
2024-01-31T16:54:37.642Z,6.84
2024-01-31T16:56:46.102Z,6.88
2024-01-31T16:58:54.669Z,6.88
2024-01-31T17:01:04.870Z,6.91
2024-01-31T17:03:13.270Z,6.90
2024-01-31T17:05:21.741Z,6.90
2024-01-31T17:07:31.302Z,6.83
2024-01-31T17:09:42.357Z,6.73
2024-01-31T17:11:50.701Z,6.64
2024-01-31T17:13:59.144Z,6.61
2024-01-31T17:16:08.397Z,6.54
2024-01-31T17:18:21.364Z,6.50
2024-01-31T17:20:30.715Z,6.63
2024-01-31T17:22:39.311Z,6.58
2024-01-31T17:24:50.900Z,6.37
2024-01-31T17:26:59.592Z,6.27
2024-01-31T17:29:08.031Z,6.18
2024-01-31T17:31:16.383Z,6.06
2024-01-31T17:33:24.601Z,5.98
2024-01-31T17:35:33.147Z,6.10
2024-01-31T17:37:42.341Z,6.48
2024-01-31T17:39:53.825Z,6.37
2024-01-31T17:42:02.455Z,6.15
2024-01-31T17:44:10.632Z,6.30
2024-01-31T17:46:28.004Z,6.41
2024-01-31T17:48:36.544Z,6.36
2024-01-31T17:50:46.184Z,6.44
2024-01-31T17:52:55.158Z,6.67
2024-01-31T17:55:06.640Z,6.73
2024-01-31T17:57:15.769Z,6.79
2024-01-31T17:59:25.342Z,6.82
2024-01-31T18:01:31.015Z,6.77
2024-01-31T18:03:40.116Z,6.94
2024-01-31T18:05:53.414Z,6.80
2024-01-31T18:08:02.109Z,6.68
2024-01-31T18:10:14.495Z,6.65
2024-01-31T18:12:28.180Z,6.68
2024-01-31T18:14:38.671Z,7.02
2024-01-31T18:16:47.459Z,6.98
2024-01-31T18:19:03.621Z,6.99
2024-01-31T18:21:12.576Z,7.02
2024-01-31T18:23:21.342Z,7.05
2024-01-31T18:25:32.805Z,6.93
2024-01-31T18:27:42.543Z,6.90
2024-01-31T18:29:53.382Z,6.74
2024-01-31T18:32:03.950Z,6.74
2024-01-31T18:34:12.866Z,6.77
2024-01-31T18:36:21.765Z,6.52
2024-01-31T18:38:30.324Z,6.57
2024-01-31T18:40:41.232Z,6.53
2024-01-31T18:42:49.870Z,6.37
2024-01-31T18:44:58.294Z,6.33
2024-01-31T18:47:06.836Z,6.37
2024-01-31T18:49:19.047Z,6.15
2024-01-31T18:51:27.857Z,6.00
2024-01-31T18:53:37.766Z,6.03
2024-01-31T18:55:49.294Z,5.95
2024-01-31T18:57:57.557Z,5.86
2024-01-31T19:00:06.495Z,5.80
2024-01-31T19:02:18.195Z,5.82
2024-01-31T19:04:26.692Z,5.66
2024-01-31T19:06:35.049Z,5.62
2024-01-31T19:08:43.552Z,5.60
2024-01-31T19:10:54.517Z,5.66
2024-01-31T19:13:03.216Z,5.80
2024-01-31T19:15:14.763Z,5.91
2024-01-31T19:17:27.890Z,5.91
2024-01-31T19:19:39.710Z,5.96
2024-01-31T19:21:48.335Z,5.97
2024-01-31T19:23:56.862Z,5.99
2024-01-31T19:26:08.172Z,6.11
2024-01-31T19:28:17.997Z,6.13
2024-01-31T19:30:27.668Z,6.26
2024-01-31T19:32:38.419Z,6.31
2024-01-31T19:34:48.431Z,6.39
2024-01-31T19:36:56.980Z,6.46
2024-01-31T19:39:02.766Z,6.56
2024-01-31T19:41:13.774Z,6.60
2024-01-31T19:43:22.497Z,6.88
2024-01-31T19:45:31.076Z,6.87
2024-01-31T19:47:39.531Z,6.88
2024-01-31T19:49:47.759Z,6.89
2024-01-31T19:51:57.440Z,7.07
2024-01-31T19:54:05.938Z,7.00
2024-01-31T19:56:17.284Z,6.94
2024-01-31T19:58:25.719Z,6.98
2024-01-31T20:00:34.206Z,7.18
2024-01-31T20:02:42.885Z,7.10
2024-01-31T20:04:51.449Z,7.08
2024-01-31T20:07:00.037Z,7.10
2024-01-31T20:09:10.417Z,7.13
2024-01-31T20:11:21.598Z,7.19
2024-01-31T20:13:27.185Z,7.11
2024-01-31T20:15:35.554Z,7.12
2024-01-31T20:17:44.465Z,7.12
2024-01-31T20:19:52.885Z,7.10
2024-01-31T20:22:01.850Z,7.17
2024-01-31T20:24:10.512Z,7.18
2024-01-31T20:26:22.045Z,7.29
2024-01-31T20:28:27.748Z,7.40
2024-01-31T20:30:36.621Z,7.43
2024-01-31T20:32:45.185Z,7.29
2024-01-31T20:34:53.981Z,7.52
2024-01-31T20:37:02.427Z,7.64
2024-01-31T20:39:18.264Z,7.66
2024-01-31T20:41:32.778Z,7.69
2024-01-31T20:43:41.254Z,7.63
2024-01-31T20:45:53.421Z,7.73
2024-01-31T20:48:01.745Z,7.67
2024-01-31T20:50:09.377Z,7.67
2024-01-31T20:52:19.182Z,7.60
2024-01-31T20:54:27.162Z,7.64
2024-01-31T20:56:38.464Z,7.70
2024-01-31T20:58:46.731Z,7.73
2024-01-31T21:00:58.899Z,7.76
2024-01-31T21:03:08.656Z,7.84
2024-01-31T21:05:17.584Z,7.91
2024-01-31T21:07:28.678Z,7.82
2024-01-31T21:09:34.520Z,7.91
2024-01-31T21:11:45.526Z,7.87
2024-01-31T21:13:53.853Z,8.03
2024-01-31T21:16:00.740Z,8.21
2024-01-31T21:18:14.607Z,8.05
2024-01-31T21:20:23.408Z,8.15
2024-01-31T21:22:31.678Z,8.36
2024-01-31T21:24:40.205Z,8.17
2024-01-31T21:26:51.272Z,8.22
2024-01-31T21:29:01.591Z,8.30
2024-01-31T21:31:11.052Z,8.11
2024-01-31T21:33:20.826Z,8.04
2024-01-31T21:35:26.538Z,8.15
2024-01-31T21:37:34.672Z,8.13
2024-01-31T21:39:45.882Z,8.11
2024-01-31T21:42:00.051Z,8.05
2024-01-31T21:44:09.730Z,8.13
2024-01-31T21:46:18.656Z,8.22
2024-01-31T21:48:30.176Z,8.14
2024-01-31T21:50:38.714Z,8.16
2024-01-31T21:52:46.843Z,8.03
2024-01-31T21:54:54.849Z,8.02
2024-01-31T21:57:09.015Z,8.06
2024-01-31T21:59:17.155Z,8.08
2024-01-31T22:01:25.613Z,8.01
2024-01-31T22:03:46.277Z,8.00
2024-01-31T22:06:02.094Z,7.91
2024-01-31T22:08:13.908Z,7.95
2024-01-31T22:10:24.736Z,7.99
2024-01-31T22:12:35.639Z,7.87
2024-01-31T22:14:49.093Z,7.84
2024-01-31T22:16:57.400Z,7.92
2024-01-31T22:19:08.519Z,8.00
2024-01-31T22:21:15.112Z,8.06
2024-01-31T22:23:24.554Z,8.10
2024-01-31T22:25:32.867Z,8.18
2024-01-31T22:27:43.718Z,8.30
2024-01-31T22:29:51.992Z,8.12
2024-01-31T22:32:06.215Z,8.20
2024-01-31T22:34:17.851Z,8.17
2024-01-31T22:36:26.330Z,8.21
2024-01-31T22:38:34.936Z,8.09
2024-01-31T22:40:43.874Z,8.11
2024-01-31T22:42:55.053Z,8.14
2024-01-31T22:45:03.395Z,8.23
2024-01-31T22:47:11.746Z,8.26
2024-01-31T22:49:20.128Z,8.22
2024-01-31T22:51:28.730Z,8.19
2024-01-31T22:53:36.996Z,8.18
2024-01-31T22:55:49.417Z,8.14
2024-01-31T22:58:00.424Z,7.98
2024-01-31T23:00:11.230Z,8.33
2024-01-31T23:02:22.383Z,8.15
2024-01-31T23:04:30.748Z,8.22
2024-01-31T23:06:39.234Z,8.03
2024-01-31T23:08:48.687Z,7.89
2024-01-31T23:10:57.047Z,8.06
2024-01-31T23:13:05.355Z,7.88
2024-01-31T23:15:14.727Z,8.00
2024-01-31T23:17:23.837Z,8.00
2024-01-31T23:19:32.531Z,8.05
2024-01-31T23:21:43.211Z,7.99
2024-01-31T23:23:52.589Z,8.01
2024-01-31T23:25:58.173Z,7.88
2024-01-31T23:28:09.559Z,7.72
2024-01-31T23:30:19.033Z,7.83
2024-01-31T23:32:27.110Z,7.82
2024-01-31T23:34:32.584Z,7.79
2024-01-31T23:36:40.865Z,7.82
2024-01-31T23:38:49.707Z,7.78
2024-01-31T23:40:57.844Z,7.85
2024-01-31T23:43:08.859Z,7.73
2024-01-31T23:45:17.187Z,7.82
2024-01-31T23:47:25.598Z,7.90
2024-01-31T23:49:34.239Z,7.97
2024-01-31T23:51:42.562Z,7.95
2024-01-31T23:53:51.192Z,7.91
2024-01-31T23:56:01.092Z,7.85
2024-01-31T23:58:12.090Z,7.79
